Time;durP1;ratioP1;P1;durP2;ratioP2;P2;SDS_P1;SDS_P2;PMS_P1;PMS_P2;Temp;Humidity;BMP_temperature;BMP_pressure;BME280_temperature;BME280_humidity;BME280_pressure;Samples;Min_cycle;Max_cycle;Signal;HPM_P1;HPM_P2
2022/10/04 00:00:37;;;;;;;0;0;;;;;;;0;0;0;;;;
2022/10/04 00:01:40;;;;;;;0;0;;;;;;;0;0;0;;;;
2022/10/04 00:02:47;;;;;;;0;0;;;;;;;0;0;0;;;;
2022/10/04 00:03:47;;;;;;;0;0;;;;;;;0;0;0;;;;
2022/10/04 00:05:02;;;;;;;0;0;;;;;;;0;0;0;;;;
2022/10/04 00:06:07;;;;;;;0;0;;;;;;;0;0;0;;;;
2022/10/04 00:07:16;;;;;;;0;0;;;;;;;0;0;0;;;;
2022/10/04 00:08:21;;;;;;;0;0;;;;;;;0;0;0;;;;
2022/10/04 00:09:29;;;;;;;0;0;;;;;;;0;0;0;;;;
2022/10/04 00:10:35;;;;;;;0;0;;;;;;;0;0;0;;;;
2022/10/04 00:11:36;;;;;;;0;0;;;;;;;0;0;0;;;;
2022/10/04 00:12:42;;;;;;;0;0;;;;;;;0;0;0;;;;
2022/10/04 00:13:48;;;;;;;0;0;;;;;;;0;0;0;;;;
2022/10/04 00:14:53;;;;;;;0;0;;;;;;;0;0;0;;;;
2022/10/04 00:15:57;;;;;;;0;0;;;;;;;0;0;0;;;;
2022/10/04 00:16:58;;;;;;;0;0;;;;;;;0;0;0;;;;
2022/10/04 00:18:09;;;;;;;0;0;;;;;;;0;0;0;;;;
2022/10/04 00:19:21;;;;;;;0;0;;;;;;;0;0;0;;;;
2022/10/04 00:20:36;;;;;;;0;0;;;;;;;0;0;0;;;;
2022/10/04 00:22:11;;;;;;;0;0;;;;;;;0;0;0;;;;
2022/10/04 00:23:17;;;;;;;0;0;;;;;;;0;0;0;;;;
2022/10/04 00:24:28;;;;;;;0;0;;;;;;;0;0;0;;;;
2022/10/04 00:25:31;;;;;;;0;0;;;;;;;0;0;0;;;;
2022/10/04 00:26:34;;;;;;;0;0;;;;;;;0;0;0;;;;
2022/10/04 00:28:17;;;;;;;0;0;;;;;;;0;0;0;;;;
2022/10/04 00:29:51;;;;;;;0;0;;;;;;;0;0;0;;;;
2022/10/04 00:31:15;;;;;;;0;0;;;;;;;0;0;0;;;;
2022/10/04 00:32:19;;;;;;;0;0;;;;;;;0;0;0;;;;
2022/10/04 00:33:29;;;;;;;0;0;;;;;;;0;0;0;;;;
2022/10/04 00:34:34;;;;;;;0;0;;;;;;;0;0;0;;;;
2022/10/04 00:35:45;;;;;;;0;0;;;;;;;0;0;0;;;;
2022/10/04 00:36:48;;;;;;;0;0;;;;;;;0;0;0;;;;
2022/10/04 00:37:51;;;;;;;0;0;;;;;;;0;0;0;;;;
2022/10/04 00:38:56;;;;;;;0;0;;;;;;;0;0;0;;;;
2022/10/04 00:40:04;;;;;;;0;0;;;;;;;0;0;0;;;;
2022/10/04 00:41:14;;;;;;;0;0;;;;;;;0;0;0;;;;
2022/10/04 00:42:15;;;;;;;0;0;;;;;;;0;0;0;;;;
2022/10/04 00:43:30;;;;;;;0;0;;;;;;;0;0;0;;;;
2022/10/04 00:44:38;;;;;;;0;0;;;;;;;0;0;0;;;;
2022/10/04 00:45:49;;;;;;;0;0;;;;;;;0;0;0;;;;
2022/10/04 00:46:55;;;;;;;0;0;;;;;;;0;0;0;;;;
2022/10/04 00:47:58;;;;;;;0;0;;;;;;;0;0;0;;;;
2022/10/04 00:49:32;;;;;;;0;0;;;;;;;0;0;0;;;;
2022/10/04 00:50:38;;;;;;;0;0;;;;;;;0;0;0;;;;
2022/10/04 00:51:42;;;;;;;0;0;;;;;;;0;0;0;;;;
2022/10/04 00:52:46;;;;;;;0;0;;;;;;;0;0;0;;;;
2022/10/04 00:53:51;;;;;;;0;0;;;;;;;0;0;0;;;;
2022/10/04 00:55:01;;;;;;;0;0;;;;;;;0;0;0;;;;
2022/10/04 00:56:06;;;;;;;0;0;;;;;;;0;0;0;;;;
2022/10/04 00:57:10;;;;;;;0;0;;;;;;;0;0;0;;;;
2022/10/04 00:58:16;;;;;;;0;0;;;;;;;0;0;0;;;;
2022/10/04 00:59:23;;;;;;;0;0;;;;;;;0;0;0;;;;
2022/10/04 01:00:32;;;;;;;0;0;;;;;;;0;0;0;;;;
2022/10/04 01:01:35;;;;;;;0;0;;;;;;;0;0;0;;;;
2022/10/04 01:02:35;;;;;;;0;0;;;;;;;0;0;0;;;;
2022/10/04 01:03:44;;;;;;;0;0;;;;;;;0;0;0;;;;
2022/10/04 01:04:46;;;;;;;0;0;;;;;;;0;0;0;;;;
2022/10/04 01:05:52;;;;;;;0;0;;;;;;;0;0;0;;;;
2022/10/04 01:06:58;;;;;;;0;0;;;;;;;0;0;0;;;;
2022/10/04 01:08:03;;;;;;;0;0;;;;;;;0;0;0;;;;
2022/10/04 01:09:07;;;;;;;0;0;;;;;;;0;0;0;;;;
2022/10/04 01:10:11;;;;;;;0;0;;;;;;;0;0;0;;;;
2022/10/04 01:11:18;;;;;;;0;0;;;;;;;0;0;0;;;;
2022/10/04 01:12:23;;;;;;;0;0;;;;;;;0;0;0;;;;
2022/10/04 01:13:36;;;;;;;0;0;;;;;;;0;0;0;;;;
2022/10/04 01:14:39;;;;;;;0;0;;;;;;;0;0;0;;;;
2022/10/04 01:15:51;;;;;;;0;0;;;;;;;0;0;0;;;;
2022/10/04 01:16:58;;;;;;;0;0;;;;;;;0;0;0;;;;
2022/10/04 01:17:58;;;;;;;0;0;;;;;;;0;0;0;;;;
2022/10/04 01:19:09;;;;;;;0;0;;;;;;;0;0;0;;;;
2022/10/04 01:20:27;;;;;;;0;0;;;;;;;0;0;0;;;;
2022/10/04 01:21:33;;;;;;;0;0;;;;;;;0;0;0;;;;
2022/10/04 01:22:37;;;;;;;0;0;;;;;;;0;0;0;;;;
2022/10/04 01:23:41;;;;;;;0;0;;;;;;;0;0;0;;;;
2022/10/04 01:24:44;;;;;;;0;0;;;;;;;0;0;0;;;;
2022/10/04 01:25:45;;;;;;;0;0;;;;;;;0;0;0;;;;
2022/10/04 01:26:48;;;;;;;0;0;;;;;;;0;0;0;;;;
2022/10/04 01:27:49;;;;;;;0;0;;;;;;;0;0;0;;;;
2022/10/04 01:28:51;;;;;;;0;0;;;;;;;0;0;0;;;;
2022/10/04 01:29:52;;;;;;;0;0;;;;;;;0;0;0;;;;
2022/10/04 01:30:53;;;;;;;0;0;;;;;;;0;0;0;;;;
2022/10/04 01:31:54;;;;;;;0;0;;;;;;;0;0;0;;;;
2022/10/04 01:32:57;;;;;;;0;0;;;;;;;0;0;0;;;;
2022/10/04 01:33:58;;;;;;;0;0;;;;;;;0;0;0;;;;
2022/10/04 01:35:00;;;;;;;0;0;;;;;;;0;0;0;;;;
2022/10/04 01:36:00;;;;;;;0;0;;;;;;;0;0;0;;;;
2022/10/04 01:37:01;;;;;;;0;0;;;;;;;0;0;0;;;;
2022/10/04 01:38:02;;;;;;;0;0;;;;;;;0;0;0;;;;
2022/10/04 01:39:04;;;;;;;0;0;;;;;;;0;0;0;;;;
2022/10/04 01:40:05;;;;;;;0;0;;;;;;;0;0;0;;;;
2022/10/04 01:41:09;;;;;;;0;0;;;;;;;0;0;0;;;;
2022/10/04 01:42:13;;;;;;;0;0;;;;;;;0;0;0;;;;
2022/10/04 01:43:17;;;;;;;0;0;;;;;;;0;0;0;;;;
2022/10/04 01:44:25;;;;;;;0;0;;;;;;;0;0;0;;;;
2022/10/04 01:45:30;;;;;;;0;0;;;;;;;0;0;0;;;;
2022/10/04 01:46:37;;;;;;;0;0;;;;;;;0;0;0;;;;
2022/10/04 01:47:39;;;;;;;0;0;;;;;;;0;0;0;;;;
2022/10/04 01:48:42;;;;;;;0;0;;;;;;;0;0;0;;;;
2022/10/04 01:49:44;;;;;;;0;0;;;;;;;0;0;0;;;;
2022/10/04 01:50:47;;;;;;;0;0;;;;;;;0;0;0;;;;
2022/10/04 01:51:55;;;;;;;0;0;;;;;;;0;0;0;;;;
2022/10/04 01:53:05;;;;;;;0;0;;;;;;;0;0;0;;;;
2022/10/04 01:54:14;;;;;;;0;0;;;;;;;0;0;0;;;;
2022/10/04 01:55:19;;;;;;;0;0;;;;;;;0;0;0;;;;
2022/10/04 01:56:24;;;;;;;0;0;;;;;;;0;0;0;;;;
2022/10/04 01:57:28;;;;;;;0;0;;;;;;;0;0;0;;;;
2022/10/04 01:58:34;;;;;;;0;0;;;;;;;0;0;0;;;;
2022/10/04 01:59:42;;;;;;;0;0;;;;;;;0;0;0;;;;
2022/10/04 02:00:48;;;;;;;0;0;;;;;;;0;0;0;;;;
2022/10/04 02:01:54;;;;;;;0;0;;;;;;;0;0;0;;;;
2022/10/04 02:02:59;;;;;;;0;0;;;;;;;0;0;0;;;;
2022/10/04 02:04:03;;;;;;;0;0;;;;;;;0;0;0;;;;
2022/10/04 02:05:09;;;;;;;0;0;;;;;;;0;0;0;;;;
2022/10/04 02:06:12;;;;;;;0;0;;;;;;;0;0;0;;;;
2022/10/04 02:07:14;;;;;;;0;0;;;;;;;0;0;0;;;;
2022/10/04 02:08:15;;;;;;;0;0;;;;;;;0;0;0;;;;
2022/10/04 02:09:21;;;;;;;0;0;;;;;;;0;0;0;;;;
2022/10/04 02:10:25;;;;;;;0;0;;;;;;;0;0;0;;;;
2022/10/04 02:11:26;;;;;;;0;0;;;;;;;0;0;0;;;;
2022/10/04 02:12:30;;;;;;;0;0;;;;;;;0;0;0;;;;
2022/10/04 02:13:32;;;;;;;0;0;;;;;;;0;0;0;;;;
2022/10/04 02:14:35;;;;;;;0;0;;;;;;;0;0;0;;;;
2022/10/04 02:15:42;;;;;;;0;0;;;;;;;0;0;0;;;;
2022/10/04 02:16:43;;;;;;;0;0;;;;;;;0;0;0;;;;
2022/10/04 02:17:45;;;;;;;0;0;;;;;;;0;0;0;;;;
2022/10/04 02:18:47;;;;;;;0;0;;;;;;;0;0;0;;;;
2022/10/04 02:19:50;;;;;;;0;0;;;;;;;0;0;0;;;;
2022/10/04 02:20:51;;;;;;;0;0;;;;;;;0;0;0;;;;
2022/10/04 02:21:53;;;;;;;0;0;;;;;;;0;0;0;;;;
2022/10/04 02:22:55;;;;;;;0;0;;;;;;;0;0;0;;;;
2022/10/04 02:23:58;;;;;;;0;0;;;;;;;0;0;0;;;;
2022/10/04 02:24:59;;;;;;;0;0;;;;;;;0;0;0;;;;
2022/10/04 02:26:01;;;;;;;0;0;;;;;;;0;0;0;;;;
2022/10/04 02:27:04;;;;;;;0;0;;;;;;;0;0;0;;;;
2022/10/04 02:28:05;;;;;;;0;0;;;;;;;0;0;0;;;;
2022/10/04 02:29:09;;;;;;;0;0;;;;;;;0;0;0;;;;
2022/10/04 02:30:10;;;;;;;0;0;;;;;;;0;0;0;;;;
2022/10/04 02:36:29;;;;;;;0;0;;;;;;;0;0;0;;;;
2022/10/04 02:37:31;;;;;;;0;0;;;;;;;0;0;0;;;;
2022/10/04 02:38:31;;;;;;;0;0;;;;;;;0;0;0;;;;
2022/10/04 02:39:37;;;;;;;0;0;;;;;;;0;0;0;;;;
2022/10/04 02:40:43;;;;;;;0;0;;;;;;;0;0;0;;;;
2022/10/04 02:41:49;;;;;;;0;0;;;;;;;0;0;0;;;;
2022/10/04 02:42:54;;;;;;;0;0;;;;;;;0;0;0;;;;
2022/10/04 02:43:59;;;;;;;0;0;;;;;;;0;0;0;;;;
2022/10/04 02:45:08;;;;;;;0;0;;;;;;;0;0;0;;;;
2022/10/04 02:46:18;;;;;;;0;0;;;;;;;0;0;0;;;;
2022/10/04 02:47:24;;;;;;;0;0;;;;;;;0;0;0;;;;
2022/10/04 02:48:30;;;;;;;0;0;;;;;;;0;0;0;;;;
2022/10/04 02:49:43;;;;;;;0;0;;;;;;;0;0;0;;;;
2022/10/04 02:50:48;;;;;;;0;0;;;;;;;0;0;0;;;;
2022/10/04 02:51:52;;;;;;;0;0;;;;;;;0;0;0;;;;
2022/10/04 02:53:01;;;;;;;0;0;;;;;;;0;0;0;;;;
2022/10/04 02:54:11;;;;;;;0;0;;;;;;;0;0;0;;;;
2022/10/04 02:55:21;;;;;;;0;0;;;;;;;0;0;0;;;;
2022/10/04 02:56:24;;;;;;;0;0;;;;;;;0;0;0;;;;
2022/10/04 02:57:24;;;;;;;0;0;;;;;;;0;0;0;;;;
2022/10/04 02:58:26;;;;;;;0;0;;;;;;;0;0;0;;;;
2022/10/04 02:59:27;;;;;;;0;0;;;;;;;0;0;0;;;;
2022/10/04 03:00:30;;;;;;;0;0;;;;;;;0;0;0;;;;
2022/10/04 03:01:31;;;;;;;0;0;;;;;;;0;0;0;;;;
2022/10/04 03:02:42;;;;;;;0;0;;;;;;;0;0;0;;;;
2022/10/04 03:04:10;;;;;;;0;0;;;;;;;0;0;0;;;;
2022/10/04 03:05:13;;;;;;;0;0;;;;;;;0;0;0;;;;
2022/10/04 03:06:14;;;;;;;0;0;;;;;;;0;0;0;;;;
2022/10/04 03:07:18;;;;;;;0;0;;;;;;;0;0;0;;;;
2022/10/04 03:08:20;;;;;;;0;0;;;;;;;0;0;0;;;;
2022/10/04 03:09:21;;;;;;;0;0;;;;;;;0;0;0;;;;
2022/10/04 03:10:23;;;;;;;0;0;;;;;;;0;0;0;;;;
2022/10/04 03:11:26;;;;;;;0;0;;;;;;;0;0;0;;;;
2022/10/04 03:12:30;;;;;;;0;0;;;;;;;0;0;0;;;;
2022/10/04 03:13:31;;;;;;;0;0;;;;;;;0;0;0;;;;
2022/10/04 03:14:32;;;;;;;0;0;;;;;;;0;0;0;;;;
2022/10/04 03:15:33;;;;;;;0;0;;;;;;;0;0;0;;;;
2022/10/04 03:16:34;;;;;;;0;0;;;;;;;0;0;0;;;;
2022/10/04 03:17:37;;;;;;;0;0;;;;;;;0;0;0;;;;
2022/10/04 03:18:39;;;;;;;0;0;;;;;;;0;0;0;;;;
2022/10/04 03:19:42;;;;;;;0;0;;;;;;;0;0;0;;;;
2022/10/04 03:20:43;;;;;;;0;0;;;;;;;0;0;0;;;;
2022/10/04 03:21:44;;;;;;;0;0;;;;;;;0;0;0;;;;
2022/10/04 03:22:48;;;;;;;0;0;;;;;;;0;0;0;;;;
2022/10/04 03:23:52;;;;;;;0;0;;;;;;;0;0;0;;;;
2022/10/04 03:24:52;;;;;;;0;0;;;;;;;0;0;0;;;;
2022/10/04 03:25:57;;;;;;;0;0;;;;;;;0;0;0;;;;
2022/10/04 03:27:02;;;;;;;0;0;;;;;;;0;0;0;;;;
2022/10/04 03:28:07;;;;;;;0;0;;;;;;;0;0;0;;;;
2022/10/04 03:29:09;;;;;;;0;0;;;;;;;0;0;0;;;;
2022/10/04 03:30:12;;;;;;;0;0;;;;;;;0;0;0;;;;
2022/10/04 03:31:14;;;;;;;0;0;;;;;;;0;0;0;;;;
2022/10/04 03:32:15;;;;;;;0;0;;;;;;;0;0;0;;;;
2022/10/04 03:33:18;;;;;;;0;0;;;;;;;0;0;0;;;;
2022/10/04 03:34:21;;;;;;;0;0;;;;;;;0;0;0;;;;
2022/10/04 03:35:24;;;;;;;0;0;;;;;;;0;0;0;;;;
2022/10/04 03:36:30;;;;;;;0;0;;;;;;;0;0;0;;;;
2022/10/04 03:37:31;;;;;;;0;0;;;;;;;0;0;0;;;;
2022/10/04 03:38:35;;;;;;;0;0;;;;;;;0;0;0;;;;
2022/10/04 03:39:36;;;;;;;0;0;;;;;;;0;0;0;;;;
2022/10/04 03:40:39;;;;;;;0;0;;;;;;;0;0;0;;;;
2022/10/04 03:41:48;;;;;;;0;0;;;;;;;0;0;0;;;;
2022/10/04 03:42:49;;;;;;;0;0;;;;;;;0;0;0;;;;
2022/10/04 03:43:50;;;;;;;0;0;;;;;;;0;0;0;;;;
2022/10/04 03:44:53;;;;;;;0;0;;;;;;;0;0;0;;;;
2022/10/04 03:45:58;;;;;;;0;0;;;;;;;0;0;0;;;;
2022/10/04 03:47:01;;;;;;;0;0;;;;;;;0;0;0;;;;
2022/10/04 03:48:08;;;;;;;0;0;;;;;;;0;0;0;;;;
2022/10/04 03:49:13;;;;;;;0;0;;;;;;;0;0;0;;;;
2022/10/04 03:50:23;;;;;;;0;0;;;;;;;0;0;0;;;;
2022/10/04 03:51:27;;;;;;;0;0;;;;;;;0;0;0;;;;
2022/10/04 03:52:28;;;;;;;0;0;;;;;;;0;0;0;;;;
2022/10/04 03:53:34;;;;;;;0;0;;;;;;;0;0;0;;;;
2022/10/04 03:54:38;;;;;;;0;0;;;;;;;0;0;0;;;;
2022/10/04 03:55:39;;;;;;;0;0;;;;;;;0;0;0;;;;
2022/10/04 03:56:42;;;;;;;0;0;;;;;;;0;0;0;;;;
2022/10/04 03:57:44;;;;;;;0;0;;;;;;;0;0;0;;;;
2022/10/04 03:58:45;;;;;;;0;0;;;;;;;0;0;0;;;;
2022/10/04 03:59:49;;;;;;;0;0;;;;;;;0;0;0;;;;
2022/10/04 04:00:50;;;;;;;0;0;;;;;;;0;0;0;;;;
2022/10/04 04:02:04;;;;;;;0;0;;;;;;;0;0;0;;;;
2022/10/04 04:03:13;;;;;;;0;0;;;;;;;0;0;0;;;;
2022/10/04 04:04:18;;;;;;;0;0;;;;;;;0;0;0;;;;
2022/10/04 04:05:27;;;;;;;0;0;;;;;;;0;0;0;;;;
2022/10/04 04:06:30;;;;;;;0;0;;;;;;;0;0;0;;;;
2022/10/04 04:07:39;;;;;;;0;0;;;;;;;0;0;0;;;;
2022/10/04 04:08:45;;;;;;;0;0;;;;;;;0;0;0;;;;
2022/10/04 04:09:51;;;;;;;0;0;;;;;;;0;0;0;;;;
2022/10/04 04:10:58;;;;;;;0;0;;;;;;;0;0;0;;;;
2022/10/04 04:12:03;;;;;;;0;0;;;;;;;0;0;0;;;;
2022/10/04 04:13:09;;;;;;;0;0;;;;;;;0;0;0;;;;
2022/10/04 04:14:22;;;;;;;0;0;;;;;;;0;0;0;;;;
2022/10/04 04:15:25;;;;;;;0;0;;;;;;;0;0;0;;;;
2022/10/04 04:16:28;;;;;;;0;0;;;;;;;0;0;0;;;;
2022/10/04 04:17:29;;;;;;;0;0;;;;;;;0;0;0;;;;
2022/10/04 04:18:35;;;;;;;0;0;;;;;;;0;0;0;;;;
2022/10/04 04:19:40;;;;;;;0;0;;;;;;;0;0;0;;;;
2022/10/04 04:20:41;;;;;;;0;0;;;;;;;0;0;0;;;;
2022/10/04 04:21:43;;;;;;;0;0;;;;;;;0;0;0;;;;
2022/10/04 04:22:45;;;;;;;0;0;;;;;;;0;0;0;;;;
2022/10/04 04:23:55;;;;;;;0;0;;;;;;;0;0;0;;;;
2022/10/04 04:24:58;;;;;;;0;0;;;;;;;0;0;0;;;;
2022/10/04 04:26:03;;;;;;;0;0;;;;;;;0;0;0;;;;
2022/10/04 04:27:17;;;;;;;0;0;;;;;;;0;0;0;;;;
2022/10/04 04:28:18;;;;;;;0;0;;;;;;;0;0;0;;;;
2022/10/04 04:29:25;;;;;;;0;0;;;;;;;0;0;0;;;;
2022/10/04 04:30:31;;;;;;;0;0;;;;;;;0;0;0;;;;
2022/10/04 04:31:37;;;;;;;0;0;;;;;;;0;0;0;;;;
2022/10/04 04:32:45;;;;;;;0;0;;;;;;;0;0;0;;;;
2022/10/04 04:33:50;;;;;;;0;0;;;;;;;0;0;0;;;;
2022/10/04 04:34:56;;;;;;;0;0;;;;;;;0;0;0;;;;
2022/10/04 04:35:58;;;;;;;0;0;;;;;;;0;0;0;;;;
2022/10/04 04:37:05;;;;;;;0;0;;;;;;;0;0;0;;;;
2022/10/04 04:38:09;;;;;;;0;0;;;;;;;0;0;0;;;;
2022/10/04 04:39:36;;;;;;;0;0;;;;;;;0;0;0;;;;
2022/10/04 04:40:36;;;;;;;0;0;;;;;;;0;0;0;;;;
2022/10/04 04:41:38;;;;;;;0;0;;;;;;;0;0;0;;;;
2022/10/04 04:42:40;;;;;;;0;0;;;;;;;0;0;0;;;;
2022/10/04 04:43:41;;;;;;;0;0;;;;;;;0;0;0;;;;
2022/10/04 04:44:43;;;;;;;0;0;;;;;;;0;0;0;;;;
2022/10/04 04:45:48;;;;;;;0;0;;;;;;;0;0;0;;;;
2022/10/04 04:46:49;;;;;;;0;0;;;;;;;0;0;0;;;;
2022/10/04 04:47:51;;;;;;;0;0;;;;;;;0;0;0;;;;
2022/10/04 04:48:53;;;;;;;0;0;;;;;;;0;0;0;;;;
2022/10/04 04:49:58;;;;;;;0;0;;;;;;;0;0;0;;;;
2022/10/04 04:51:05;;;;;;;0;0;;;;;;;0;0;0;;;;
2022/10/04 04:52:06;;;;;;;0;0;;;;;;;0;0;0;;;;
2022/10/04 04:53:14;;;;;;;0;0;;;;;;;0;0;0;;;;
2022/10/04 04:54:19;;;;;;;0;0;;;;;;;0;0;0;;;;
2022/10/04 04:55:25;;;;;;;0;0;;;;;;;0;0;0;;;;
2022/10/04 04:56:31;;;;;;;0;0;;;;;;;0;0;0;;;;
2022/10/04 04:57:33;;;;;;;0;0;;;;;;;0;0;0;;;;
2022/10/04 04:58:34;;;;;;;0;0;;;;;;;0;0;0;;;;
2022/10/04 04:59:37;;;;;;;0;0;;;;;;;0;0;0;;;;
2022/10/04 05:00:38;;;;;;;0;0;;;;;;;0;0;0;;;;
2022/10/04 05:01:39;;;;;;;0;0;;;;;;;0;0;0;;;;
2022/10/04 05:02:42;;;;;;;0;0;;;;;;;0;0;0;;;;
2022/10/04 05:03:50;;;;;;;0;0;;;;;;;0;0;0;;;;
2022/10/04 05:04:59;;;;;;;0;0;;;;;;;0;0;0;;;;
2022/10/04 05:06:17;;;;;;;0;0;;;;;;;0;0;0;;;;
2022/10/04 05:07:24;;;;;;;0;0;;;;;;;0;0;0;;;;
2022/10/04 05:08:26;;;;;;;0;0;;;;;;;0;0;0;;;;
2022/10/04 05:09:29;;;;;;;0;0;;;;;;;0;0;0;;;;
2022/10/04 05:10:32;;;;;;;0;0;;;;;;;0;0;0;;;;
2022/10/04 05:11:34;;;;;;;0;0;;;;;;;0;0;0;;;;
2022/10/04 05:12:37;;;;;;;0;0;;;;;;;0;0;0;;;;
2022/10/04 05:13:39;;;;;;;0;0;;;;;;;0;0;0;;;;
2022/10/04 05:14:43;;;;;;;0;0;;;;;;;0;0;0;;;;
2022/10/04 05:15:46;;;;;;;0;0;;;;;;;0;0;0;;;;
2022/10/04 05:16:52;;;;;;;0;0;;;;;;;0;0;0;;;;
2022/10/04 05:17:54;;;;;;;0;0;;;;;;;0;0;0;;;;
2022/10/04 05:18:54;;;;;;;0;0;;;;;;;0;0;0;;;;
2022/10/04 05:19:58;;;;;;;0;0;;;;;;;0;0;0;;;;
2022/10/04 05:21:01;;;;;;;0;0;;;;;;;0;0;0;;;;
2022/10/04 05:22:06;;;;;;;0;0;;;;;;;0;0;0;;;;
2022/10/04 05:23:10;;;;;;;0;0;;;;;;;0;0;0;;;;
2022/10/04 05:24:12;;;;;;;0;0;;;;;;;0;0;0;;;;
2022/10/04 05:25:19;;;;;;;0;0;;;;;;;0;0;0;;;;
2022/10/04 05:26:26;;;;;;;0;0;;;;;;;0;0;0;;;;
2022/10/04 05:27:29;;;;;;;0;0;;;;;;;0;0;0;;;;
2022/10/04 05:28:37;;;;;;;0;0;;;;;;;0;0;0;;;;
2022/10/04 05:29:38;;;;;;;0;0;;;;;;;0;0;0;;;;
2022/10/04 05:30:57;;;;;;;0;0;;;;;;;0;0;0;;;;
2022/10/04 05:32:19;;;;;;;0;0;;;;;;;0;0;0;;;;
2022/10/04 05:33:32;;;;;;;0;0;;;;;;;0;0;0;;;;
2022/10/04 05:34:38;;;;;;;0;0;;;;;;;0;0;0;;;;
2022/10/04 05:35:42;;;;;;;0;0;;;;;;;0;0;0;;;;
2022/10/04 05:36:59;;;;;;;0;0;;;;;;;0;0;0;;;;
2022/10/04 05:38:22;;;;;;;0;0;;;;;;;0;0;0;;;;
2022/10/04 05:39:32;;;;;;;0;0;;;;;;;0;0;0;;;;
2022/10/04 05:40:40;;;;;;;0;0;;;;;;;0;0;0;;;;
2022/10/04 05:56:48;;;;;;;0;0;;;;;;;0;0;0;;;;
2022/10/04 05:58:06;;;;;;;0;0;;;;;;;0;0;0;;;;
2022/10/04 05:59:21;;;;;;;0;0;;;;;;;0;0;0;;;;
2022/10/04 06:00:39;;;;;;;0;0;;;;;;;0;0;0;;;;
2022/10/04 06:01:52;;;;;;;0;0;;;;;;;0;0;0;;;;
2022/10/04 06:03:03;;;;;;;0;0;;;;;;;0;0;0;;;;
2022/10/04 06:04:21;;;;;;;0;0;;;;;;;0;0;0;;;;
2022/10/04 06:05:52;;;;;;;0;0;;;;;;;0;0;0;;;;
2022/10/04 06:06:55;;;;;;;0;0;;;;;;;0;0;0;;;;
2022/10/04 06:08:00;;;;;;;0;0;;;;;;;0;0;0;;;;
2022/10/04 06:09:07;;;;;;;0;0;;;;;;;0;0;0;;;;
2022/10/04 06:10:15;;;;;;;0;0;;;;;;;0;0;0;;;;
2022/10/04 06:11:38;;;;;;;0;0;;;;;;;0;0;0;;;;
2022/10/04 06:12:52;;;;;;;0;0;;;;;;;0;0;0;;;;
2022/10/04 06:13:58;;;;;;;0;0;;;;;;;0;0;0;;;;
2022/10/04 06:15:23;;;;;;;0;0;;;;;;;0;0;0;;;;
2022/10/04 06:16:44;;;;;;;0;0;;;;;;;0;0;0;;;;
2022/10/04 06:18:02;;;;;;;0;0;;;;;;;0;0;0;;;;
2022/10/04 06:19:19;;;;;;;0;0;;;;;;;0;0;0;;;;
2022/10/04 06:20:48;;;;;;;0;0;;;;;;;0;0;0;;;;
2022/10/04 06:22:01;;;;;;;0;0;;;;;;;0;0;0;;;;
2022/10/04 06:23:14;;;;;;;0;0;;;;;;;0;0;0;;;;
2022/10/04 06:24:16;;;;;;;0;0;;;;;;;0;0;0;;;;
2022/10/04 06:25:21;;;;;;;0;0;;;;;;;0;0;0;;;;
2022/10/04 06:26:25;;;;;;;0;0;;;;;;;0;0;0;;;;
2022/10/04 06:27:34;;;;;;;0;0;;;;;;;0;0;0;;;;
2022/10/04 06:28:40;;;;;;;0;0;;;;;;;0;0;0;;;;
2022/10/04 06:29:45;;;;;;;0;0;;;;;;;0;0;0;;;;
2022/10/04 06:30:52;;;;;;;0;0;;;;;;;0;0;0;;;;
2022/10/04 06:32:10;;;;;;;0;0;;;;;;;0;0;0;;;;
2022/10/04 06:33:34;;;;;;;0;0;;;;;;;0;0;0;;;;
2022/10/04 06:34:52;;;;;;;0;0;;;;;;;0;0;0;;;;
2022/10/04 06:37:16;;;;;;;0;0;;;;;;;0;0;0;;;;
2022/10/04 06:38:34;;;;;;;0;0;;;;;;;0;0;0;;;;
2022/10/04 06:39:55;;;;;;;0;0;;;;;;;0;0;0;;;;
2022/10/04 06:41:18;;;;;;;0;0;;;;;;;0;0;0;;;;
2022/10/04 06:56:35;;;;;;;0;0;;;;;;;0;0;0;;;;
2022/10/04 06:57:49;;;;;;;0;0;;;;;;;0;0;0;;;;
2022/10/04 07:03:04;;;;;;;0;0;;;;;;;0;0;0;;;;
2022/10/04 07:04:13;;;;;;;0;0;;;;;;;0;0;0;;;;
2022/10/04 07:05:29;;;;;;;0;0;;;;;;;0;0;0;;;;
2022/10/04 07:06:34;;;;;;;0;0;;;;;;;0;0;0;;;;
2022/10/04 07:07:40;;;;;;;0;0;;;;;;;0;0;0;;;;
2022/10/04 07:08:46;;;;;;;0;0;;;;;;;0;0;0;;;;
2022/10/04 07:09:49;;;;;;;0;0;;;;;;;0;0;0;;;;
2022/10/04 07:10:54;;;;;;;0;0;;;;;;;0;0;0;;;;
2022/10/04 07:11:57;;;;;;;0;0;;;;;;;0;0;0;;;;
2022/10/04 07:13:04;;;;;;;0;0;;;;;;;0;0;0;;;;
2022/10/04 07:14:14;;;;;;;0;0;;;;;;;0;0;0;;;;
2022/10/04 07:15:21;;;;;;;0;0;;;;;;;0;0;0;;;;
2022/10/04 07:16:25;;;;;;;0;0;;;;;;;0;0;0;;;;
2022/10/04 07:17:34;;;;;;;0;0;;;;;;;0;0;0;;;;
2022/10/04 07:18:42;;;;;;;0;0;;;;;;;0;0;0;;;;
2022/10/04 07:19:58;;;;;;;0;0;;;;;;;0;0;0;;;;
2022/10/04 07:21:00;;;;;;;0;0;;;;;;;0;0;0;;;;
2022/10/04 07:22:07;;;;;;;0;0;;;;;;;0;0;0;;;;
2022/10/04 07:23:15;;;;;;;0;0;;;;;;;0;0;0;;;;
2022/10/04 07:24:25;;;;;;;0;0;;;;;;;0;0;0;;;;
2022/10/04 07:25:38;;;;;;;0;0;;;;;;;0;0;0;;;;
2022/10/04 07:26:44;;;;;;;0;0;;;;;;;0;0;0;;;;
2022/10/04 07:27:47;;;;;;;2.5;2;;;;;;;9.91;100;95985.21;;;;
2022/10/04 07:29:26;;;;;;;2.5;2;;;;;;;9.91;100;95985.21;;;;
2022/10/04 07:30:32;;;;;;;2.5;2;;;;;;;9.91;100;95985.21;;;;
2022/10/04 07:31:38;;;;;;;2.5;2;;;;;;;9.91;100;95985.21;;;;
2022/10/04 07:32:41;;;;;;;2.5;2;;;;;;;9.91;100;95985.21;;;;
2022/10/04 07:33:44;;;;;;;2.5;2;;;;;;;9.91;100;95985.21;;;;
2022/10/04 07:34:50;;;;;;;2.5;2;;;;;;;9.91;100;95985.21;;;;
2022/10/04 07:35:57;;;;;;;2.5;2;;;;;;;9.91;100;95985.21;;;;
2022/10/04 07:37:05;;;;;;;2.5;2;;;;;;;9.91;100;95985.21;;;;
2022/10/04 07:38:09;;;;;;;2.6;1.8;;;;;;;11.95;100;95984.27;;;;
2022/10/04 07:39:18;;;;;;;2.6;1.8;;;;;;;11.95;100;95984.27;;;;
2022/10/04 07:40:24;;;;;;;2.6;1.8;;;;;;;11.95;100;95984.27;;;;
2022/10/04 07:41:29;;;;;;;2.6;1.8;;;;;;;11.95;100;95984.27;;;;
2022/10/04 07:42:34;;;;;;;2.6;1.8;;;;;;;11.95;100;95984.27;;;;
2022/10/04 07:43:45;;;;;;;2.6;1.8;;;;;;;11.95;100;95984.27;;;;
2022/10/04 07:44:50;;;;;;;2.6;1.8;;;;;;;11.95;100;95984.27;;;;
2022/10/04 07:46:26;;;;;;;2.6;1.8;;;;;;;11.95;100;95984.27;;;;
2022/10/04 07:47:43;;;;;;;2.6;1.8;;;;;;;11.95;100;95984.27;;;;
2022/10/04 07:48:47;;;;;;;1.7;1.5;;;;;;;15.02;96.05371;95983.54;;;;
2022/10/04 07:49:49;;;;;;;1.7;1.5;;;;;;;15.02;96.05371;95983.54;;;;
2022/10/04 07:50:50;;;;;;;1.7;1.5;;;;;;;15.02;96.05371;95983.54;;;;
2022/10/04 07:52:03;;;;;;;1.7;1.5;;;;;;;15.02;96.05371;95983.54;;;;
2022/10/04 07:53:24;;;;;;;1.7;1.5;;;;;;;15.02;96.05371;95983.54;;;;
2022/10/04 07:54:30;;;;;;;1.7;1.5;;;;;;;15.02;96.05371;95983.54;;;;
2022/10/04 07:55:37;;;;;;;1.7;1.5;;;;;;;15.02;96.05371;95983.54;;;;
2022/10/04 07:56:49;;;;;;;1.7;1.5;;;;;;;15.02;96.05371;95983.54;;;;
2022/10/04 07:57:54;;;;;;;1.7;1.5;;;;;;;15.02;96.05371;95983.54;;;;
2022/10/04 07:59:06;;;;;;;1.7;1.5;;;;;;;15.02;96.05371;95983.54;;;;
2022/10/04 08:00:31;;;;;;;2.1;1.8;;;;;;;16.84;92.16406;95989.43;;;;
2022/10/04 08:01:44;;;;;;;2.1;1.8;;;;;;;16.84;92.16406;95989.43;;;;
2022/10/04 08:02:52;;;;;;;2.1;1.8;;;;;;;16.84;92.16406;95989.43;;;;
2022/10/04 08:04:13;;;;;;;2.1;1.8;;;;;;;16.84;92.16406;95989.43;;;;
2022/10/04 08:05:30;;;;;;;2.1;1.8;;;;;;;16.84;92.16406;95989.43;;;;
2022/10/04 08:06:36;;;;;;;2.1;1.8;;;;;;;16.84;92.16406;95989.43;;;;
2022/10/04 08:07:49;;;;;;;2.1;1.8;;;;;;;16.84;92.16406;95989.43;;;;
2022/10/04 08:09:08;;;;;;;2.1;1.8;;;;;;;16.84;92.16406;95989.43;;;;
2022/10/04 08:10:37;;;;;;;1.8;1.4;;;;;;;18.31;89.81055;95997.05;;;;
2022/10/04 08:11:49;;;;;;;1.8;1.4;;;;;;;18.31;89.81055;95997.05;;;;
2022/10/04 08:12:58;;;;;;;1.8;1.4;;;;;;;18.31;89.81055;95997.05;;;;
2022/10/04 08:14:09;;;;;;;1.8;1.4;;;;;;;18.31;89.81055;95997.05;;;;
2022/10/04 08:15:25;;;;;;;1.8;1.4;;;;;;;18.31;89.81055;95997.05;;;;
2022/10/04 08:16:34;;;;;;;1.8;1.4;;;;;;;18.31;89.81055;95997.05;;;;
2022/10/04 08:17:44;;;;;;;1.8;1.4;;;;;;;18.31;89.81055;95997.05;;;;
2022/10/04 08:18:55;;;;;;;1.8;1.4;;;;;;;18.31;89.81055;95997.05;;;;
2022/10/04 08:20:08;;;;;;;1.8;1.4;;;;;;;18.31;89.81055;95997.05;;;;
2022/10/04 08:21:30;;;;;;;1.8;1.4;;;;;;;21.09;84.21094;95991.55;;;;
2022/10/04 08:22:44;;;;;;;1.8;1.4;;;;;;;21.09;84.21094;95991.55;;;;
2022/10/04 08:23:58;;;;;;;1.8;1.4;;;;;;;21.09;84.21094;95991.55;;;;
2022/10/04 08:25:14;;;;;;;1.8;1.4;;;;;;;21.09;84.21094;95991.55;;;;
2022/10/04 08:26:22;;;;;;;1.8;1.4;;;;;;;21.09;84.21094;95991.55;;;;
2022/10/04 08:27:39;;;;;;;1.8;1.4;;;;;;;21.09;84.21094;95991.55;;;;
2022/10/04 08:29:57;;;;;;;1.8;1.4;;;;;;;21.09;84.21094;95991.55;;;;
2022/10/04 08:31:11;;;;;;;1.8;1.4;;;;;;;21.09;84.21094;95991.55;;;;
2022/10/04 08:32:26;;;;;;;1.5;1.3;;;;;;;23.58;80.56445;95982.87;;;;
2022/10/04 08:33:37;;;;;;;1.5;1.3;;;;;;;23.58;80.56445;95982.87;;;;
2022/10/04 08:34:53;;;;;;;1.5;1.3;;;;;;;23.58;80.56445;95982.87;;;;
2022/10/04 08:36:26;;;;;;;1.5;1.3;;;;;;;23.58;80.56445;95982.87;;;;
2022/10/04 08:37:52;;;;;;;1.5;1.3;;;;;;;23.58;80.56445;95982.87;;;;
2022/10/04 08:39:07;;;;;;;1.5;1.3;;;;;;;23.58;80.56445;95982.87;;;;
2022/10/04 08:40:27;;;;;;;1.5;1.3;;;;;;;23.58;80.56445;95982.87;;;;
2022/10/04 08:42:03;;;;;;;1.5;1.3;;;;;;;23.58;80.56445;95982.87;;;;
2022/10/04 08:43:27;;;;;;;1.8;1.55;;;;;;;24.98;78.68457;95984.7;;;;
2022/10/04 08:44:52;;;;;;;1.8;1.55;;;;;;;24.98;78.68457;95984.7;;;;
2022/10/04 08:50:19;;;;;;;1.8;1.55;;;;;;;24.98;78.68457;95984.7;;;;
2022/10/04 08:55:44;;;;;;;1.8;1.65;;;;;;;24.31;79.68652;95985.1;;;;
2022/10/04 08:57:07;;;;;;;1.8;1.65;;;;;;;24.31;79.68652;95985.1;;;;
2022/10/04 08:58:37;;;;;;;1.8;1.65;;;;;;;24.31;79.68652;95985.1;;;;
2022/10/04 08:59:51;;;;;;;1.8;1.65;;;;;;;24.31;79.68652;95985.1;;;;
2022/10/04 09:01:08;;;;;;;1.8;1.65;;;;;;;24.31;79.68652;95985.1;;;;
2022/10/04 09:02:38;;;;;;;1.8;1.65;;;;;;;24.31;79.68652;95985.1;;;;
2022/10/04 09:07:51;;;;;;;1.45;1.3;;;;;;;23.9;80.02344;95979.63;;;;
2022/10/04 09:09:13;;;;;;;1.45;1.3;;;;;;;23.9;80.02344;95979.63;;;;
2022/10/04 09:14:33;;;;;;;1.6;1;;;;;;;23.74;81.14648;95971.33;;;;
2022/10/04 09:15:55;;;;;;;1.6;1;;;;;;;23.74;81.14648;95971.33;;;;
2022/10/04 09:17:07;;;;;;;1.6;1;;;;;;;23.74;81.14648;95971.33;;;;
2022/10/04 09:18:20;;;;;;;1.6;1;;;;;;;23.74;81.14648;95971.33;;;;
2022/10/04 09:19:37;;;;;;;1.6;1;;;;;;;23.74;81.14648;95971.33;;;;
2022/10/04 09:20:52;;;;;;;1.6;1;;;;;;;23.74;81.14648;95971.33;;;;
2022/10/04 09:21:56;;;;;;;1.6;1;;;;;;;23.74;81.14648;95971.33;;;;
2022/10/04 09:23:15;;;;;;;1.6;1;;;;;;;23.74;81.14648;95971.33;;;;
2022/10/04 09:24:44;;;;;;;1.45;1.1;;;;;;;23.82;81.12793;95978.44;;;;
2022/10/04 09:26:20;;;;;;;1.45;1.1;;;;;;;23.82;81.12793;95978.44;;;;
2022/10/04 09:27:22;;;;;;;1.45;1.1;;;;;;;23.82;81.12793;95978.44;;;;
2022/10/04 09:28:42;;;;;;;1.45;1.1;;;;;;;23.82;81.12793;95978.44;;;;
2022/10/04 09:30:08;;;;;;;1.45;1.1;;;;;;;23.82;81.12793;95978.44;;;;
2022/10/04 09:31:16;;;;;;;1.45;1.1;;;;;;;23.82;81.12793;95978.44;;;;
2022/10/04 09:32:38;;;;;;;1.45;1.1;;;;;;;23.82;81.12793;95978.44;;;;
2022/10/04 09:33:56;;;;;;;1.45;1.1;;;;;;;23.82;81.12793;95978.44;;;;
2022/10/04 09:35:12;;;;;;;1.45;1.1;;;;;;;23.82;81.12793;95978.44;;;;
2022/10/04 09:36:48;;;;;;;0.95;0.9;;;;;;;23.83;81.28516;95974.68;;;;
2022/10/04 09:38:03;;;;;;;0.95;0.9;;;;;;;23.83;81.28516;95974.68;;;;
2022/10/04 09:39:22;;;;;;;0.95;0.9;;;;;;;23.83;81.28516;95974.68;;;;
2022/10/04 09:41:00;;;;;;;0.95;0.9;;;;;;;23.83;81.28516;95974.68;;;;
2022/10/04 09:42:22;;;;;;;0.95;0.9;;;;;;;23.83;81.28516;95974.68;;;;
2022/10/04 09:43:41;;;;;;;0.95;0.9;;;;;;;23.83;81.28516;95974.68;;;;
2022/10/04 09:45:04;;;;;;;0.95;0.9;;;;;;;23.83;81.28516;95974.68;;;;
2022/10/04 09:47:16;;;;;;;1.1;1;;;;;;;22.87;83.46387;95975.48;;;;
2022/10/04 09:48:43;;;;;;;1.1;1;;;;;;;22.87;83.46387;95975.48;;;;
2022/10/04 09:49:57;;;;;;;1.1;1;;;;;;;22.87;83.46387;95975.48;;;;
2022/10/04 09:52:18;;;;;;;1.1;1;;;;;;;22.87;83.46387;95975.48;;;;
2022/10/04 09:53:33;;;;;;;1.1;1;;;;;;;22.87;83.46387;95975.48;;;;
2022/10/04 09:54:44;;;;;;;1.1;1;;;;;;;22.87;83.46387;95975.48;;;;